sensor_id;sensor_type;location;lat;lon;timestamp;pressure;altitude;pressure_sealevel;temperature;humidity
77799;BME280;66989;50.426;15.352;2023-08-20T00:02:23;98570.41;;;20.37;84.40
77799;BME280;66989;50.426;15.352;2023-08-20T00:04:49;98576.44;;;20.31;84.67
77799;BME280;66989;50.426;15.352;2023-08-20T00:07:15;98570.75;;;20.26;84.57
77799;BME280;66989;50.426;15.352;2023-08-20T00:09:43;98570.59;;;20.19;84.92
77799;BME280;66989;50.426;15.352;2023-08-20T00:12:09;98574.94;;;20.12;85.11
77799;BME280;66989;50.426;15.352;2023-08-20T00:14:56;98571.94;;;20.07;85.39
77799;BME280;66989;50.426;15.352;2023-08-20T00:17:31;98574.47;;;20.01;85.36
77799;BME280;66989;50.426;15.352;2023-08-20T00:19:57;98569.59;;;19.96;85.64
77799;BME280;66989;50.426;15.352;2023-08-20T00:22:23;98571.78;;;19.92;86.09
77799;BME280;66989;50.426;15.352;2023-08-20T00:24:53;98574.63;;;19.91;86.22
77799;BME280;66989;50.426;15.352;2023-08-20T00:27:19;98572.13;;;19.89;85.74
77799;BME280;66989;50.426;15.352;2023-08-20T00:29:44;98571.44;;;19.87;85.67
77799;BME280;66989;50.426;15.352;2023-08-20T00:32:10;98576.13;;;19.85;85.93
77799;BME280;66989;50.426;15.352;2023-08-20T00:34:35;98572.44;;;19.86;86.07
77799;BME280;66989;50.426;15.352;2023-08-20T00:37:02;98576.31;;;19.84;85.95
77799;BME280;66989;50.426;15.352;2023-08-20T00:39:28;98571.78;;;19.84;86.17
77799;BME280;66989;50.426;15.352;2023-08-20T00:41:54;98575.28;;;19.85;86.30
77799;BME280;66989;50.426;15.352;2023-08-20T00:44:19;98575.94;;;19.87;86.21
77799;BME280;66989;50.426;15.352;2023-08-20T00:46:45;98566.25;;;19.86;86.85
77799;BME280;66989;50.426;15.352;2023-08-20T00:49:10;98571.63;;;19.86;86.94
77799;BME280;66989;50.426;15.352;2023-08-20T00:51:36;98575.13;;;19.86;87.37
77799;BME280;66989;50.426;15.352;2023-08-20T00:54:02;98585.81;;;19.86;87.85
77799;BME280;66989;50.426;15.352;2023-08-20T00:56:28;98576.13;;;19.85;87.77
77799;BME280;66989;50.426;15.352;2023-08-20T00:58:54;98582.50;;;19.84;88.06
77799;BME280;66989;50.426;15.352;2023-08-20T01:01:21;98588.00;;;19.83;88.34
77799;BME280;66989;50.426;15.352;2023-08-20T01:03:47;98589.00;;;19.82;88.26
77799;BME280;66989;50.426;15.352;2023-08-20T01:08:57;98592.53;;;19.74;88.38
77799;BME280;66989;50.426;15.352;2023-08-20T01:11:33;98586.44;;;19.72;88.66
77799;BME280;66989;50.426;15.352;2023-08-20T01:14:02;98591.13;;;19.70;88.33
77799;BME280;66989;50.426;15.352;2023-08-20T01:16:27;98600.50;;;19.66;88.31
77799;BME280;66989;50.426;15.352;2023-08-20T01:18:53;98594.78;;;19.61;88.11
77799;BME280;66989;50.426;15.352;2023-08-20T01:21:38;98595.47;;;19.55;88.35
77799;BME280;66989;50.426;15.352;2023-08-20T01:24:11;98595.94;;;19.50;88.27
77799;BME280;66989;50.426;15.352;2023-08-20T01:27:08;98596.31;;;19.47;88.46
77799;BME280;66989;50.426;15.352;2023-08-20T01:29:36;98601.13;;;19.43;88.61
77799;BME280;66989;50.426;15.352;2023-08-20T01:32:02;98599.47;;;19.42;88.76
77799;BME280;66989;50.426;15.352;2023-08-20T01:34:29;98599.47;;;19.42;88.78
77799;BME280;66989;50.426;15.352;2023-08-20T01:36:54;98594.13;;;19.42;88.49
77799;BME280;66989;50.426;15.352;2023-08-20T01:39:20;98584.06;;;19.44;88.49
77799;BME280;66989;50.426;15.352;2023-08-20T01:41:45;98577.56;;;19.47;88.59
77799;BME280;66989;50.426;15.352;2023-08-20T01:44:11;98576.22;;;19.51;88.25
77799;BME280;66989;50.426;15.352;2023-08-20T01:46:36;98582.25;;;19.53;88.21
77799;BME280;66989;50.426;15.352;2023-08-20T01:49:02;98581.25;;;19.54;88.02
77799;BME280;66989;50.426;15.352;2023-08-20T01:51:27;98589.63;;;19.59;88.12
77799;BME280;66989;50.426;15.352;2023-08-20T01:53:53;98585.94;;;19.60;87.86
77799;BME280;66989;50.426;15.352;2023-08-20T01:56:18;98580.41;;;19.62;87.90
77799;BME280;66989;50.426;15.352;2023-08-20T01:58:44;98583.94;;;19.62;87.59
77799;BME280;66989;50.426;15.352;2023-08-20T02:01:09;98588.31;;;19.63;87.26
77799;BME280;66989;50.426;15.352;2023-08-20T02:03:36;98587.78;;;19.60;86.93
77799;BME280;66989;50.426;15.352;2023-08-20T02:06:02;98584.44;;;19.58;87.04
77799;BME280;66989;50.426;15.352;2023-08-20T02:08:28;98586.25;;;19.57;87.15
77799;BME280;66989;50.426;15.352;2023-08-20T02:11:03;98579.41;;;19.55;86.84
77799;BME280;66989;50.426;15.352;2023-08-20T02:13:30;98588.44;;;19.54;87.11
77799;BME280;66989;50.426;15.352;2023-08-20T02:18:25;98601.66;;;19.47;86.93
77799;BME280;66989;50.426;15.352;2023-08-20T02:20:50;98597.44;;;19.44;87.18
77799;BME280;66989;50.426;15.352;2023-08-20T02:23:15;98598.09;;;19.38;87.14
77799;BME280;66989;50.426;15.352;2023-08-20T02:25:41;98594.25;;;19.33;87.09
77799;BME280;66989;50.426;15.352;2023-08-20T02:28:06;98592.06;;;19.28;87.07
77799;BME280;66989;50.426;15.352;2023-08-20T02:30:32;98592.25;;;19.27;87.31
77799;BME280;66989;50.426;15.352;2023-08-20T02:32:57;98591.38;;;19.26;87.49
77799;BME280;66989;50.426;15.352;2023-08-20T02:35:22;98589.69;;;19.25;87.48
77799;BME280;66989;50.426;15.352;2023-08-20T02:37:48;98589.69;;;19.25;87.57
77799;BME280;66989;50.426;15.352;2023-08-20T02:40:13;98591.72;;;19.23;87.76
77799;BME280;66989;50.426;15.352;2023-08-20T02:42:39;98594.38;;;19.23;87.50
77799;BME280;66989;50.426;15.352;2023-08-20T02:45:05;98587.38;;;19.22;87.61
77799;BME280;66989;50.426;15.352;2023-08-20T02:47:30;98590.03;;;19.22;87.85
77799;BME280;66989;50.426;15.352;2023-08-20T02:49:56;98588.03;;;19.24;87.66
77799;BME280;66989;50.426;15.352;2023-08-20T02:52:21;98584.88;;;19.29;87.64
77799;BME280;66989;50.426;15.352;2023-08-20T02:54:46;98588.06;;;19.32;87.66
77799;BME280;66989;50.426;15.352;2023-08-20T02:57:12;98590.41;;;19.35;87.30
77799;BME280;66989;50.426;15.352;2023-08-20T02:59:37;98592.75;;;19.38;87.12
77799;BME280;66989;50.426;15.352;2023-08-20T03:02:02;98583.91;;;19.38;87.25
77799;BME280;66989;50.426;15.352;2023-08-20T03:04:28;98585.41;;;19.40;87.39
77799;BME280;66989;50.426;15.352;2023-08-20T03:06:54;98587.75;;;19.43;87.50
77799;BME280;66989;50.426;15.352;2023-08-20T03:09:19;98595.78;;;19.43;87.52
77799;BME280;66989;50.426;15.352;2023-08-20T03:11:44;98599.13;;;19.45;87.74
77799;BME280;66989;50.426;15.352;2023-08-20T03:14:10;98600.13;;;19.44;87.78
77799;BME280;66989;50.426;15.352;2023-08-20T03:16:35;98593.09;;;19.43;87.73
77799;BME280;66989;50.426;15.352;2023-08-20T03:19:00;98599.78;;;19.39;87.83
77799;BME280;66989;50.426;15.352;2023-08-20T03:21:26;98597.41;;;19.36;87.99
77799;BME280;66989;50.426;15.352;2023-08-20T03:23:51;98593.41;;;19.32;87.81
77799;BME280;66989;50.426;15.352;2023-08-20T03:26:16;98592.06;;;19.28;87.90
77799;BME280;66989;50.426;15.352;2023-08-20T03:28:42;98589.69;;;19.25;88.34
77799;BME280;66989;50.426;15.352;2023-08-20T03:31:07;98596.06;;;19.24;88.55
77799;BME280;66989;50.426;15.352;2023-08-20T03:33:32;98594.69;;;19.20;88.44
77799;BME280;66989;50.426;15.352;2023-08-20T03:35:58;98600.38;;;19.17;88.81
77799;BME280;66989;50.426;15.352;2023-08-20T03:38:23;98606.72;;;19.16;88.82
77799;BME280;66989;50.426;15.352;2023-08-20T03:40:49;98599.88;;;19.13;88.94
77799;BME280;66989;50.426;15.352;2023-08-20T03:43:15;98606.38;;;19.11;88.95
77799;BME280;66989;50.426;15.352;2023-08-20T03:45:40;98604.56;;;19.11;89.14
77799;BME280;66989;50.426;15.352;2023-08-20T03:48:05;98608.06;;;19.12;89.38
77799;BME280;66989;50.426;15.352;2023-08-20T03:50:31;98605.22;;;19.13;89.29
77799;BME280;66989;50.426;15.352;2023-08-20T03:52:56;98611.41;;;19.14;89.35
77799;BME280;66989;50.426;15.352;2023-08-20T03:55:21;98617.56;;;19.14;89.13
77799;BME280;66989;50.426;15.352;2023-08-20T03:57:47;98610.56;;;19.13;88.90
77799;BME280;66989;50.426;15.352;2023-08-20T04:00:12;98611.41;;;19.14;88.88
77799;BME280;66989;50.426;15.352;2023-08-20T04:02:38;98612.06;;;19.16;89.21
77799;BME280;66989;50.426;15.352;2023-08-20T04:05:04;98614.72;;;19.16;89.24
77799;BME280;66989;50.426;15.352;2023-08-20T04:07:29;98624.44;;;19.17;89.35
77799;BME280;66989;50.426;15.352;2023-08-20T04:09:54;98624.09;;;19.20;89.17
77799;BME280;66989;50.426;15.352;2023-08-20T04:12:20;98624.81;;;19.22;89.11
77799;BME280;66989;50.426;15.352;2023-08-20T04:14:45;98623.47;;;19.26;89.38
77799;BME280;66989;50.426;15.352;2023-08-20T04:17:10;98621.66;;;19.35;88.72
77799;BME280;66989;50.426;15.352;2023-08-20T04:19:36;98621.22;;;19.48;88.52
77799;BME280;66989;50.426;15.352;2023-08-20T04:22:01;98621.72;;;19.59;87.69
77799;BME280;66989;50.426;15.352;2023-08-20T04:24:26;98623.25;;;19.70;87.25
77799;BME280;66989;50.426;15.352;2023-08-20T04:26:52;98627.78;;;19.78;87.23
77799;BME280;66989;50.426;15.352;2023-08-20T04:29:17;98624.47;;;19.84;86.90
77799;BME280;66989;50.426;15.352;2023-08-20T04:31:42;98624.47;;;19.92;86.88
77799;BME280;66989;50.426;15.352;2023-08-20T04:34:08;98622.16;;;20.05;86.41
77799;BME280;66989;50.426;15.352;2023-08-20T04:36:33;98617.09;;;20.18;85.92
77799;BME280;66989;50.426;15.352;2023-08-20T04:38:58;98626.00;;;20.35;85.31
77799;BME280;66989;50.426;15.352;2023-08-20T04:41:24;98615.72;;;20.63;85.05
77799;BME280;66989;50.426;15.352;2023-08-20T04:43:49;98616.22;;;20.83;83.97
77799;BME280;66989;50.426;15.352;2023-08-20T04:46:15;98616.00;;;20.93;82.86
77799;BME280;66989;50.426;15.352;2023-08-20T04:48:40;98616.78;;;21.02;82.58
77799;BME280;66989;50.426;15.352;2023-08-20T04:51:06;98617.59;;;21.10;82.35
77799;BME280;66989;50.426;15.352;2023-08-20T04:53:32;98615.75;;;21.19;82.41
77799;BME280;66989;50.426;15.352;2023-08-20T04:55:58;98615.34;;;21.30;81.92
77799;BME280;66989;50.426;15.352;2023-08-20T04:58:23;98609.44;;;21.35;81.27
77799;BME280;66989;50.426;15.352;2023-08-20T05:00:49;98615.84;;;21.34;81.01
77799;BME280;66989;50.426;15.352;2023-08-20T05:03:14;98611.31;;;21.34;80.69
77799;BME280;66989;50.426;15.352;2023-08-20T05:05:39;98618.53;;;21.34;80.93
77799;BME280;66989;50.426;15.352;2023-08-20T05:08:05;98622.34;;;21.39;81.04
77799;BME280;66989;50.426;15.352;2023-08-20T05:10:30;98623.31;;;21.46;81.10
77799;BME280;66989;50.426;15.352;2023-08-20T05:12:56;98626.94;;;21.62;80.61
77799;BME280;66989;50.426;15.352;2023-08-20T05:15:21;98631.38;;;21.77;79.84
77799;BME280;66989;50.426;15.352;2023-08-20T05:17:47;98630.06;;;21.96;79.39
77799;BME280;66989;50.426;15.352;2023-08-20T05:20:12;98624.19;;;22.16;79.09
77799;BME280;66989;50.426;15.352;2023-08-20T05:22:38;98631.09;;;22.33;79.02
77799;BME280;66989;50.426;15.352;2023-08-20T05:25:03;98626.63;;;22.48;77.61
77799;BME280;66989;50.426;15.352;2023-08-20T05:27:29;98625.91;;;22.69;76.99
77799;BME280;66989;50.426;15.352;2023-08-20T05:29:54;98628.97;;;22.96;76.83
77799;BME280;66989;50.426;15.352;2023-08-20T05:32:20;98635.19;;;23.26;75.88
77799;BME280;66989;50.426;15.352;2023-08-20T05:34:45;98629.06;;;23.47;74.86
77799;BME280;66989;50.426;15.352;2023-08-20T05:37:10;98633.75;;;23.59;74.83
77799;BME280;66989;50.426;15.352;2023-08-20T05:39:39;98628.66;;;23.50;73.67
77799;BME280;66989;50.426;15.352;2023-08-20T05:42:05;98627.19;;;23.47;73.24
77799;BME280;66989;50.426;15.352;2023-08-20T05:44:31;98636.19;;;23.40;73.10
77799;BME280;66989;50.426;15.352;2023-08-20T05:46:56;98629.06;;;23.32;73.59
77799;BME280;66989;50.426;15.352;2023-08-20T05:49:22;98633.81;;;23.30;74.06
77799;BME280;66989;50.426;15.352;2023-08-20T05:51:47;98633.13;;;23.28;74.13
77799;BME280;66989;50.426;15.352;2023-08-20T05:54:12;98634.47;;;23.32;74.34
77799;BME280;66989;50.426;15.352;2023-08-20T05:56:38;98633.63;;;23.31;74.31
77799;BME280;66989;50.426;15.352;2023-08-20T05:59:03;98643.69;;;23.29;73.91
77799;BME280;66989;50.426;15.352;2023-08-20T06:01:28;98641.91;;;23.30;74.15
77799;BME280;66989;50.426;15.352;2023-08-20T06:03:54;98646.69;;;23.35;73.96
77799;BME280;66989;50.426;15.352;2023-08-20T06:06:21;98639.09;;;23.38;73.79
77799;BME280;66989;50.426;15.352;2023-08-20T06:08:48;98647.81;;;23.40;73.73
77799;BME280;66989;50.426;15.352;2023-08-20T06:11:13;98642.44;;;23.40;73.74
77799;BME280;66989;50.426;15.352;2023-08-20T06:13:38;98644.94;;;23.42;73.98
77799;BME280;66989;50.426;15.352;2023-08-20T06:16:04;98645.00;;;23.48;73.96
77799;BME280;66989;50.426;15.352;2023-08-20T06:18:30;98648.78;;;23.54;73.88
77799;BME280;66989;50.426;15.352;2023-08-20T06:20:55;98651.75;;;23.59;74.62
77799;BME280;66989;50.426;15.352;2023-08-20T06:23:24;98656.22;;;23.67;74.60
77799;BME280;66989;50.426;15.352;2023-08-20T06:25:52;98656.28;;;23.73;74.87
77799;BME280;66989;50.426;15.352;2023-08-20T06:28:17;98653.84;;;23.78;74.60
77799;BME280;66989;50.426;15.352;2023-08-20T06:30:44;98659.31;;;23.85;74.67
77799;BME280;66989;50.426;15.352;2023-08-20T06:33:10;98653.81;;;23.93;74.52
77799;BME280;66989;50.426;15.352;2023-08-20T06:35:35;98658.41;;;23.99;74.71
77799;BME280;66989;50.426;15.352;2023-08-20T06:38:01;98663.19;;;23.97;74.83
77799;BME280;66989;50.426;15.352;2023-08-20T06:40:26;98660.59;;;23.89;74.25
77799;BME280;66989;50.426;15.352;2023-08-20T06:42:51;98662.69;;;23.72;72.81
77799;BME280;66989;50.426;15.352;2023-08-20T06:45:17;98665.28;;;23.66;73.51
77799;BME280;66989;50.426;15.352;2023-08-20T06:47:42;98664.03;;;23.62;74.20
77799;BME280;66989;50.426;15.352;2023-08-20T06:50:08;98665.63;;;23.56;74.56
77799;BME280;66989;50.426;15.352;2023-08-20T06:52:34;98670.53;;;23.52;73.65
77799;BME280;66989;50.426;15.352;2023-08-20T06:54:59;98672.59;;;23.50;74.73
77799;BME280;66989;50.426;15.352;2023-08-20T06:57:25;98669.63;;;23.45;75.01
77799;BME280;66989;50.426;15.352;2023-08-20T06:59:50;98675.09;;;23.52;74.75
77799;BME280;66989;50.426;15.352;2023-08-20T07:02:15;98677.91;;;23.65;74.89
77799;BME280;66989;50.426;15.352;2023-08-20T07:04:41;98673.34;;;23.80;74.40
77799;BME280;66989;50.426;15.352;2023-08-20T07:07:06;98685.63;;;24.04;74.15
77799;BME280;66989;50.426;15.352;2023-08-20T07:09:33;98687.16;;;24.28;73.75
77799;BME280;66989;50.426;15.352;2023-08-20T07:11:58;98688.59;;;24.52;72.93
77799;BME280;66989;50.426;15.352;2023-08-20T07:14:24;98692.28;;;24.73;71.23
77799;BME280;66989;50.426;15.352;2023-08-20T07:16:49;98693.50;;;24.92;70.53
77799;BME280;66989;50.426;15.352;2023-08-20T07:19:14;98694.84;;;25.09;69.85
77799;BME280;66989;50.426;15.352;2023-08-20T07:21:40;98698.25;;;25.18;69.29
77799;BME280;66989;50.426;15.352;2023-08-20T07:24:05;98697.28;;;25.32;69.04
77799;BME280;66989;50.426;15.352;2023-08-20T07:26:31;98697.78;;;25.49;68.81
77799;BME280;66989;50.426;15.352;2023-08-20T07:28:57;98696.63;;;25.64;68.43
77799;BME280;66989;50.426;15.352;2023-08-20T07:31:23;98698.97;;;25.81;67.88
77799;BME280;66989;50.426;15.352;2023-08-20T07:33:49;98698.81;;;26.02;67.08
77799;BME280;66989;50.426;15.352;2023-08-20T07:36:16;98708.84;;;26.22;65.43
77799;BME280;66989;50.426;15.352;2023-08-20T07:38:42;98704.34;;;26.35;64.58
77799;BME280;66989;50.426;15.352;2023-08-20T07:41:11;98717.25;;;26.53;64.06
77799;BME280;66989;50.426;15.352;2023-08-20T07:43:38;98722.91;;;26.72;63.46
77799;BME280;66989;50.426;15.352;2023-08-20T07:46:04;98721.63;;;26.81;62.91
77799;BME280;66989;50.426;15.352;2023-08-20T07:48:29;98718.72;;;26.89;61.86
77799;BME280;66989;50.426;15.352;2023-08-20T07:50:55;98718.72;;;26.82;62.29
77799;BME280;66989;50.426;15.352;2023-08-20T07:53:20;98733.47;;;26.53;61.80
77799;BME280;66989;50.426;15.352;2023-08-20T07:55:45;98725.69;;;26.24;61.85
77799;BME280;66989;50.426;15.352;2023-08-20T07:58:11;98725.69;;;26.10;63.55
77799;BME280;66989;50.426;15.352;2023-08-20T08:00:37;98719.88;;;26.20;63.22
77799;BME280;66989;50.426;15.352;2023-08-20T08:03:03;98727.47;;;26.51;62.98
77799;BME280;66989;50.426;15.352;2023-08-20T08:05:28;98719.38;;;26.71;62.52
77799;BME280;66989;50.426;15.352;2023-08-20T08:07:54;98717.47;;;26.78;61.89
77799;BME280;66989;50.426;15.352;2023-08-20T08:10:20;98728.50;;;27.03;62.55
77799;BME280;66989;50.426;15.352;2023-08-20T08:12:45;98726.63;;;27.04;61.42
77799;BME280;66989;50.426;15.352;2023-08-20T08:15:11;98724.38;;;27.07;61.15
77799;BME280;66989;50.426;15.352;2023-08-20T08:17:36;98723.31;;;27.08;61.98
77799;BME280;66989;50.426;15.352;2023-08-20T08:20:03;98721.22;;;27.10;61.86
77799;BME280;66989;50.426;15.352;2023-08-20T08:22:30;98712.88;;;27.05;62.03
77799;BME280;66989;50.426;15.352;2023-08-20T08:24:55;98710.84;;;27.07;62.53
77799;BME280;66989;50.426;15.352;2023-08-20T08:27:21;98714.31;;;27.21;62.69
77799;BME280;66989;50.426;15.352;2023-08-20T08:29:46;98714.69;;;27.38;63.02
77799;BME280;66989;50.426;15.352;2023-08-20T08:32:11;98719.88;;;27.59;63.08
77799;BME280;66989;50.426;15.352;2023-08-20T08:34:37;98714.59;;;27.78;61.97
77799;BME280;66989;50.426;15.352;2023-08-20T08:37:02;98714.09;;;27.94;61.78
77799;BME280;66989;50.426;15.352;2023-08-20T08:39:27;98705.84;;;28.14;60.96
77799;BME280;66989;50.426;15.352;2023-08-20T08:42:00;98712.16;;;28.39;60.25
77799;BME280;66989;50.426;15.352;2023-08-20T08:44:27;98717.06;;;28.62;59.55
77799;BME280;66989;50.426;15.352;2023-08-20T08:46:53;98715.31;;;28.93;59.19
77799;BME280;66989;50.426;15.352;2023-08-20T08:49:18;98709.97;;;29.11;57.63
77799;BME280;66989;50.426;15.352;2023-08-20T08:51:44;98712.94;;;29.46;57.69
77799;BME280;66989;50.426;15.352;2023-08-20T08:54:12;98709.34;;;29.71;57.28
77799;BME280;66989;50.426;15.352;2023-08-20T08:56:38;98709.63;;;30.11;56.72
77799;BME280;66989;50.426;15.352;2023-08-20T08:59:04;98709.88;;;30.40;55.56
77799;BME280;66989;50.426;15.352;2023-08-20T09:01:29;98708.28;;;30.74;53.86
77799;BME280;66989;50.426;15.352;2023-08-20T09:03:55;98707.63;;;31.02;53.78
77799;BME280;66989;50.426;15.352;2023-08-20T09:06:20;98712.59;;;31.28;53.40
77799;BME280;66989;50.426;15.352;2023-08-20T09:08:45;98707.72;;;31.42;52.57
77799;BME280;66989;50.426;15.352;2023-08-20T09:11:10;98725.59;;;31.62;51.81
77799;BME280;66989;50.426;15.352;2023-08-20T09:13:40;98718.84;;;31.52;50.37
77799;BME280;66989;50.426;15.352;2023-08-20T09:16:07;98718.91;;;31.05;50.12
77799;BME280;66989;50.426;15.352;2023-08-20T09:18:50;98725.34;;;30.69;52.14
77799;BME280;66989;50.426;15.352;2023-08-20T09:21:16;98721.88;;;30.62;52.10
77799;BME280;66989;50.426;15.352;2023-08-20T09:23:44;98733.97;;;30.78;52.99
77799;BME280;66989;50.426;15.352;2023-08-20T09:26:10;98728.84;;;31.12;53.37
77799;BME280;66989;50.426;15.352;2023-08-20T09:28:42;98726.69;;;31.49;51.33
77799;BME280;66989;50.426;15.352;2023-08-20T09:31:08;98731.72;;;31.80;49.60
77799;BME280;66989;50.426;15.352;2023-08-20T09:33:35;98726.88;;;32.11;49.15
77799;BME280;66989;50.426;15.352;2023-08-20T09:36:00;98725.69;;;32.47;48.01
77799;BME280;66989;50.426;15.352;2023-08-20T09:38:27;98722.75;;;32.82;46.59
77799;BME280;66989;50.426;15.352;2023-08-20T09:40:54;98719.44;;;33.53;46.42
77799;BME280;66989;50.426;15.352;2023-08-20T09:43:24;98719.22;;;34.25;43.02
77799;BME280;66989;50.426;15.352;2023-08-20T09:45:55;98708.28;;;35.16;42.74
77799;BME280;66989;50.426;15.352;2023-08-20T09:48:21;98710.94;;;36.11;41.27
77799;BME280;66989;50.426;15.352;2023-08-20T09:50:49;98708.50;;;36.25;38.07
77799;BME280;66989;50.426;15.352;2023-08-20T09:53:26;98705.28;;;35.60;38.23
77799;BME280;66989;50.426;15.352;2023-08-20T09:55:52;98701.78;;;35.33;39.38
77799;BME280;66989;50.426;15.352;2023-08-20T09:58:21;98712.44;;;34.55;40.59
77799;BME280;66989;50.426;15.352;2023-08-20T10:00:51;98713.38;;;33.89;41.13
77799;BME280;66989;50.426;15.352;2023-08-20T10:03:18;98714.88;;;34.02;40.54
77799;BME280;66989;50.426;15.352;2023-08-20T10:05:49;98724.06;;;33.91;40.60
77799;BME280;66989;50.426;15.352;2023-08-20T10:08:15;98713.25;;;34.28;40.79
77799;BME280;66989;50.426;15.352;2023-08-20T10:10:42;98712.31;;;35.04;40.13
77799;BME280;66989;50.426;15.352;2023-08-20T10:13:08;98712.69;;;35.70;39.13
77799;BME280;66989;50.426;15.352;2023-08-20T10:15:33;98714.41;;;35.34;39.31
77799;BME280;66989;50.426;15.352;2023-08-20T10:18:01;98716.94;;;34.98;39.80
77799;BME280;66989;50.426;15.352;2023-08-20T10:20:28;98713.75;;;34.47;41.38
77799;BME280;66989;50.426;15.352;2023-08-20T10:23:00;98711.81;;;34.21;40.72
77799;BME280;66989;50.426;15.352;2023-08-20T10:25:26;98717.78;;;34.18;41.40
77799;BME280;66989;50.426;15.352;2023-08-20T10:27:54;98713.81;;;33.81;42.01
77799;BME280;66989;50.426;15.352;2023-08-20T10:30:24;98719.41;;;33.70;42.23
77799;BME280;66989;50.426;15.352;2023-08-20T10:32:57;98712.13;;;34.51;40.54
77799;BME280;66989;50.426;15.352;2023-08-20T10:35:24;98708.56;;;35.15;39.48
77799;BME280;66989;50.426;15.352;2023-08-20T10:38:16;98710.00;;;35.85;38.90
77799;BME280;66989;50.426;15.352;2023-08-20T10:40:59;98700.53;;;36.08;37.91
77799;BME280;66989;50.426;15.352;2023-08-20T10:43:32;98700.84;;;36.27;37.55
77799;BME280;66989;50.426;15.352;2023-08-20T10:46:23;98691.00;;;36.82;36.00
77799;BME280;66989;50.426;15.352;2023-08-20T10:51:28;98702.03;;;37.98;34.23
77799;BME280;66989;50.426;15.352;2023-08-20T11:01:38;98691.03;;;38.37;33.87
77799;BME280;66989;50.426;15.352;2023-08-20T11:04:05;98687.97;;;38.78;33.42
77799;BME280;66989;50.426;15.352;2023-08-20T11:06:33;98688.56;;;38.70;33.55
77799;BME280;66989;50.426;15.352;2023-08-20T11:08:59;98687.41;;;39.10;32.90
77799;BME280;66989;50.426;15.352;2023-08-20T11:11:25;98688.50;;;38.46;34.10
77799;BME280;66989;50.426;15.352;2023-08-20T11:13:50;98680.56;;;38.39;33.94
77799;BME280;66989;50.426;15.352;2023-08-20T11:16:16;98681.72;;;38.67;34.23
77799;BME280;66989;50.426;15.352;2023-08-20T11:18:41;98673.75;;;39.24;32.77
77799;BME280;66989;50.426;15.352;2023-08-20T11:21:07;98672.31;;;39.56;31.98
77799;BME280;66989;50.426;15.352;2023-08-20T11:23:33;98678.38;;;40.00;31.70
77799;BME280;66989;50.426;15.352;2023-08-20T11:25:59;98670.03;;;40.76;30.62
77799;BME280;66989;50.426;15.352;2023-08-20T11:28:28;98671.28;;;41.30;30.28
77799;BME280;66989;50.426;15.352;2023-08-20T11:30:54;98667.00;;;41.24;29.55
77799;BME280;66989;50.426;15.352;2023-08-20T11:33:27;98666.97;;;41.79;29.62
77799;BME280;66989;50.426;15.352;2023-08-20T11:35:55;98666.19;;;42.51;29.08
77799;BME280;66989;50.426;15.352;2023-08-20T11:38:23;98670.13;;;42.36;27.31
77799;BME280;66989;50.426;15.352;2023-08-20T11:40:50;98673.91;;;42.04;26.43
77799;BME280;66989;50.426;15.352;2023-08-20T11:43:15;98660.84;;;42.04;26.76
77799;BME280;66989;50.426;15.352;2023-08-20T11:45:48;98663.81;;;42.22;26.99
77799;BME280;66989;50.426;15.352;2023-08-20T11:48:15;98653.94;;;42.74;26.21
77799;BME280;66989;50.426;15.352;2023-08-20T11:50:41;98657.75;;;43.49;25.91
77799;BME280;66989;50.426;15.352;2023-08-20T11:53:08;98662.78;;;43.96;25.75
77799;BME280;66989;50.426;15.352;2023-08-20T11:55:35;98657.44;;;44.34;25.38
77799;BME280;66989;50.426;15.352;2023-08-20T11:58:00;98662.31;;;44.37;24.91
77799;BME280;66989;50.426;15.352;2023-08-20T12:00:27;98653.97;;;44.63;24.26
77799;BME280;66989;50.426;15.352;2023-08-20T12:02:54;98653.78;;;44.68;23.95
77799;BME280;66989;50.426;15.352;2023-08-20T12:05:27;98652.00;;;44.55;23.76
77799;BME280;66989;50.426;15.352;2023-08-20T12:08:02;98644.16;;;44.22;24.26
77799;BME280;66989;50.426;15.352;2023-08-20T12:10:29;98641.50;;;43.91;24.68
77799;BME280;66989;50.426;15.352;2023-08-20T12:12:56;98646.09;;;42.99;25.90
77799;BME280;66989;50.426;15.352;2023-08-20T12:15:22;98643.50;;;41.63;27.23
77799;BME280;66989;50.426;15.352;2023-08-20T12:20:22;98644.00;;;39.88;29.79
77799;BME280;66989;50.426;15.352;2023-08-20T12:22:48;98637.97;;;39.86;29.02
77799;BME280;66989;50.426;15.352;2023-08-20T12:25:14;98639.31;;;40.26;28.89
77799;BME280;66989;50.426;15.352;2023-08-20T12:27:39;98631.47;;;40.66;28.28
77799;BME280;66989;50.426;15.352;2023-08-20T12:30:05;98639.63;;;40.05;29.47
77799;BME280;66989;50.426;15.352;2023-08-20T12:32:31;98638.09;;;39.75;29.34
77799;BME280;66989;50.426;15.352;2023-08-20T12:34:56;98638.25;;;39.41;29.89
77799;BME280;66989;50.426;15.352;2023-08-20T12:37:21;98637.91;;;39.48;29.88
77799;BME280;66989;50.426;15.352;2023-08-20T12:39:47;98629.19;;;39.78;30.00
77799;BME280;66989;50.426;15.352;2023-08-20T12:42:14;98638.66;;;39.96;30.16
77799;BME280;66989;50.426;15.352;2023-08-20T12:44:39;98644.59;;;40.03;29.76
77799;BME280;66989;50.426;15.352;2023-08-20T12:47:04;98644.28;;;40.24;29.30
77799;BME280;66989;50.426;15.352;2023-08-20T12:49:30;98644.53;;;40.46;29.53
77799;BME280;66989;50.426;15.352;2023-08-20T12:51:55;98641.19;;;40.63;29.87
77799;BME280;66989;50.426;15.352;2023-08-20T12:54:21;98631.75;;;40.83;28.95
77799;BME280;66989;50.426;15.352;2023-08-20T12:56:46;98633.13;;;40.67;28.72
77799;BME280;66989;50.426;15.352;2023-08-20T12:59:12;98634.44;;;40.18;29.28
77799;BME280;66989;50.426;15.352;2023-08-20T13:01:37;98630.78;;;39.18;30.10
77799;BME280;66989;50.426;15.352;2023-08-20T13:04:03;98636.47;;;38.39;31.59
77799;BME280;66989;50.426;15.352;2023-08-20T13:06:29;98626.94;;;38.21;32.22